Flight Track Log - Related Links

Times and Time Zones

All times are in EDT time to prevent confusion due to time zone crossing. See the N1AP flight status page for this flight to view local times or setup timezone preferences in your user account.

Time Position Orientation Groundspeed Altitude Reporting Facility
EDT Latitude Longitude Course Direction KTS MPH feet Rate Location/Type
Wed 01:28:53 PM 40.2631 -79.3725 58° Northeast 233 268 4,300  Level Cleveland Center
Wed 01:30:21 PM 40.3219 -79.2486 58° Northeast 293 337 7,400 2,392 Climbing Cleveland Center
Wed 01:31:21 PM 40.3708 -79.1469 58° Northeast 307 353 10,200 2,600 Climbing Cleveland Center
Wed 01:32:21 PM 40.4214 -79.0367 59° Northeast 332 382 12,600 2,850 Climbing Cleveland Center
Wed 01:33:21 PM 40.4761 -78.9264 57° Northeast 351 404 15,900 2,850 Climbing Cleveland Center
Wed 01:34:21 PM 40.5328 -78.8075 58° Northeast 364 419 18,300 2,450 Climbing Cleveland Center
Wed 01:35:21 PM 40.5914 -78.6828 58° Northeast 384 442 20,800 2,242 Climbing Cleveland Center
Wed 01:37:31 PM 40.7239 -78.3981 58° Northeast 428 493 25,400 2,168 Climbing New York Center
Wed 01:38:32 PM 40.7869 -78.2622 58° Northeast 428 493 27,700 2,034 Climbing New York Center
Wed 01:39:29 PM 40.8519 -78.1211 59° Northeast 433 498 29,400 1,897 Climbing New York Center
Wed 01:40:29 PM 40.9153 -77.9742 60° Northeast 438 504 31,400 1,884 Climbing New York Center
Wed 01:41:30 PM 40.9825 -77.8247 59° Northeast 452 520 33,200 1,800 Climbing New York Center
Wed 01:42:29 PM 41.0522 -77.6694 59° Northeast 469 540 35,000 1,714 Climbing New York Center
Wed 01:43:29 PM 41.1214 -77.5167 59° Northeast 479 551 36,600 984 Climbing New York Center
Wed 01:44:31 PM 41.1953 -77.3531 59° Northeast 490 564 37,000 197 Climbing New York Center
Wed 01:45:31 PM 41.2689 -77.1861 60° Northeast 510 587 37,000  Level New York Center
Wed 01:46:32 PM 41.3450 -77.0111 60° Northeast 530 610 37,000  Level New York Center
Wed 01:47:29 PM 41.4228 -76.8356 59° Northeast 530 610 37,000  Level New York Center
Wed 01:48:30 PM 41.5053 -76.6464 60° Northeast 535 616 37,000  Level New York Center
Wed 01:49:31 PM 41.5847 -76.4675 59° Northeast 535 616 37,000  Level New York Center
Wed 01:50:29 PM 41.6578 -76.2878 61° Northeast 541 623 37,000  Level New York Center
Wed 01:51:30 PM 41.7344 -76.1106 60° Northeast 541 623 37,000  Level New York Center
Wed 01:53:56 PM 41.9167 -75.6711 61° Northeast 533 613 37,000  Level Boston Center
Wed 01:54:56 PM 41.9903 -75.4906 61° Northeast 533 613 37,000 -50 Level Boston Center
Wed 01:55:56 PM 42.0619 -75.3067 62° Northeast 543 625 36,900 -500 Descending Boston Center
Wed 01:56:56 PM 42.0956 -75.1289 76° East 543 625 36,000 -900 Descending Boston Center
Wed 01:57:56 PM 42.1272 -74.9231 78° East 544 626 35,100 -900 Descending Boston Center
Wed 01:58:56 PM 42.1589 -74.7086 79° East 563 648 34,200 -2,000 Descending Boston Center
Wed 01:59:56 PM 42.1922 -74.4969 78° East 574 661 31,100 -2,550 Descending Boston Center
Wed 02:00:56 PM 42.2200 -74.3325 77° East 574 661 29,100 -1,050 Descending Boston Center
Wed 02:01:56 PM 42.2592 -74.0867 78° East 569 655 29,000 -50 Descending Boston Center
Wed 02:02:56 PM 42.2892 -73.8800 79° East 564 649 29,000 -200 Level Boston Center
Wed 02:03:56 PM 42.3228 -73.6672 78° East 564 649 28,600 -700 Descending Boston Center
Wed 02:04:56 PM 42.3500 -73.4683 79° East 560 644 27,600 -1,050 Descending Boston Center
Wed 02:05:56 PM 42.3808 -73.2553 79° East 559 643 26,500 -1,050 Descending Boston Center
Wed 02:06:56 PM 42.4092 -73.0531 79° East 559 643 25,500 -1,000 Descending Boston Center
Wed 02:07:56 PM 42.4350 -72.8761 79° East 526 605 24,500 -1,350 Descending Boston Center
Wed 02:08:56 PM 42.4583 -72.6989 80° East 490 564 22,800 -1,950 Descending Boston Center
Wed 02:09:56 PM 42.4817 -72.5244 80° East 478 550 20,600 -2,400 Descending Boston Center
Wed 02:10:56 PM 42.5047 -72.3669 79° East 437 503 18,000 -2,650 Descending Boston Center
Wed 02:11:56 PM 42.5231 -72.2203 80° East 394 453 15,300 -2,550 Descending Boston Center
Wed 02:12:56 PM 42.5394 -72.0964 80° East 377 434 12,900 -2,500 Descending Boston Center
Wed 02:13:56 PM 42.5347 -71.9497 92° East 359 413 10,300 -2,350 Descending Boston Center
Wed 02:14:56 PM 42.5258 -71.8400 96° East 333 383 8,200 -2,100 Descending Boston Center
Wed 02:15:56 PM 42.5147 -71.7133 97° East 316 364 6,100 -1,150 Descending Boston Center
Wed 02:16:56 PM 42.5058 -71.6150 97° East 300 345 5,900 -960 Descending Boston Center
Wed 02:17:36 PM 42.5167 -71.5333 80° East 295 339 4,500 -1,213 Descending KA90
Wed 02:18:30 PM 42.5500 -71.4500 61° Northeast 245 282 4,000 -634 Descending KA90
Wed 02:19:39 PM 42.5667 -71.3500 77° East 206 237 3,200 -791 Descending KA90
Wed 02:20:39 PM 42.5500 -71.2833 109° East 182 209 2,300 -872 Descending KA90
Wed 02:21:36 PM 42.5167 -71.2500 144° Southeast 166 191 1,500 -934 Descending KA90
Wed 02:22:41 PM 42.4833 -71.2667 200° South 127 146 400 1,350 Descending KA90
Wed 02:24:56 PM 42.4111 -71.2703 182° South 117 135 6,000 1,723 Climbing Boston Center
Wed 02:25:56 PM 42.3797 -71.2708 181° South 117 135 6,000  Level Boston Center
Wed 02:26:56 PM 42.3547 -71.2714 181° South 117 135 6,000  Level Boston Center
Wed 02:28:56 PM 42.3547 -71.2714 20° North 117 135 6,000  Level Boston Center

Login

Don't have an account? Register now (free) for customized features, flight alerts, and more!